sensor_id;sensor_type;location;lat;lon;timestamp;temperature;humidity
33095;DHT22;19459;53.044;8.910;2023-05-31T00:00:46;11.30;99.90
33095;DHT22;19459;53.044;8.910;2023-05-31T00:03:12;11.30;99.90
33095;DHT22;19459;53.044;8.910;2023-05-31T00:05:38;11.30;99.90
33095;DHT22;19459;53.044;8.910;2023-05-31T00:08:04;11.30;99.90
33095;DHT22;19459;53.044;8.910;2023-05-31T00:10:30;11.20;99.90
33095;DHT22;19459;53.044;8.910;2023-05-31T00:12:56;11.20;99.90
33095;DHT22;19459;53.044;8.910;2023-05-31T00:15:22;11.20;99.90
33095;DHT22;19459;53.044;8.910;2023-05-31T00:17:48;11.20;99.90
33095;DHT22;19459;53.044;8.910;2023-05-31T00:20:13;11.20;99.90
33095;DHT22;19459;53.044;8.910;2023-05-31T00:22:39;11.10;99.90
33095;DHT22;19459;53.044;8.910;2023-05-31T00:25:05;11.10;99.90
33095;DHT22;19459;53.044;8.910;2023-05-31T00:27:31;11.10;99.90
33095;DHT22;19459;53.044;8.910;2023-05-31T00:29:57;11.10;99.90
33095;DHT22;19459;53.044;8.910;2023-05-31T00:32:23;11.10;99.90
33095;DHT22;19459;53.044;8.910;2023-05-31T00:34:48;11.10;99.90
33095;DHT22;19459;53.044;8.910;2023-05-31T00:37:14;11.00;99.90
33095;DHT22;19459;53.044;8.910;2023-05-31T00:39:40;11.00;99.90
33095;DHT22;19459;53.044;8.910;2023-05-31T00:42:06;11.00;99.90
33095;DHT22;19459;53.044;8.910;2023-05-31T00:44:32;11.00;99.90
33095;DHT22;19459;53.044;8.910;2023-05-31T00:46:58;11.00;99.90
33095;DHT22;19459;53.044;8.910;2023-05-31T00:49:24;11.00;99.90
33095;DHT22;19459;53.044;8.910;2023-05-31T00:51:52;10.90;99.90
33095;DHT22;19459;53.044;8.910;2023-05-31T00:54:18;10.90;99.90
33095;DHT22;19459;53.044;8.910;2023-05-31T00:56:44;10.90;99.90
33095;DHT22;19459;53.044;8.910;2023-05-31T00:59:10;10.90;99.90
33095;DHT22;19459;53.044;8.910;2023-05-31T01:01:36;10.80;99.90
33095;DHT22;19459;53.044;8.910;2023-05-31T01:04:02;10.80;99.90
33095;DHT22;19459;53.044;8.910;2023-05-31T01:06:28;10.80;99.90
33095;DHT22;19459;53.044;8.910;2023-05-31T01:09:03;10.80;99.90
33095;DHT22;19459;53.044;8.910;2023-05-31T01:19:48;10.70;99.90
33095;DHT22;19459;53.044;8.910;2023-05-31T01:22:35;10.70;99.90
33095;DHT22;19459;53.044;8.910;2023-05-31T01:27:58;10.70;99.90
33095;DHT22;19459;53.044;8.910;2023-05-31T01:30:27;10.70;99.90
33095;DHT22;19459;53.044;8.910;2023-05-31T01:32:56;10.70;99.90
33095;DHT22;19459;53.044;8.910;2023-05-31T01:35:23;10.60;99.90
33095;DHT22;19459;53.044;8.910;2023-05-31T01:37:48;10.70;99.90
33095;DHT22;19459;53.044;8.910;2023-05-31T01:40:16;10.60;99.90
33095;DHT22;19459;53.044;8.910;2023-05-31T01:42:43;10.70;99.90
33095;DHT22;19459;53.044;8.910;2023-05-31T01:45:12;10.60;99.90
33095;DHT22;19459;53.044;8.910;2023-05-31T01:47:40;10.60;99.90
33095;DHT22;19459;53.044;8.910;2023-05-31T01:50:13;10.70;99.90
33095;DHT22;19459;53.044;8.910;2023-05-31T01:52:39;10.70;99.90
33095;DHT22;19459;53.044;8.910;2023-05-31T01:55:07;10.70;99.90
33095;DHT22;19459;53.044;8.910;2023-05-31T01:57:33;10.70;99.90
33095;DHT22;19459;53.044;8.910;2023-05-31T02:00:01;10.70;99.90
33095;DHT22;19459;53.044;8.910;2023-05-31T02:02:32;10.70;99.90
33095;DHT22;19459;53.044;8.910;2023-05-31T02:05:06;10.80;99.90
33095;DHT22;19459;53.044;8.910;2023-05-31T02:07:34;10.70;99.90
33095;DHT22;19459;53.044;8.910;2023-05-31T02:10:03;10.70;99.90
33095;DHT22;19459;53.044;8.910;2023-05-31T02:12:29;10.70;99.90
33095;DHT22;19459;53.044;8.910;2023-05-31T02:14:55;10.70;99.90
33095;DHT22;19459;53.044;8.910;2023-05-31T02:17:24;10.70;99.90
33095;DHT22;19459;53.044;8.910;2023-05-31T02:19:51;10.80;99.90
33095;DHT22;19459;53.044;8.910;2023-05-31T02:22:19;10.80;99.90
33095;DHT22;19459;53.044;8.910;2023-05-31T02:24:45;10.80;99.90
33095;DHT22;19459;53.044;8.910;2023-05-31T02:27:14;10.80;99.90
33095;DHT22;19459;53.044;8.910;2023-05-31T02:29:40;10.80;99.90
33095;DHT22;19459;53.044;8.910;2023-05-31T02:32:07;10.80;99.90
33095;DHT22;19459;53.044;8.910;2023-05-31T02:34:32;10.80;99.90
33095;DHT22;19459;53.044;8.910;2023-05-31T02:37:00;10.80;99.90
33095;DHT22;19459;53.044;8.910;2023-05-31T02:39:26;10.80;99.90
33095;DHT22;19459;53.044;8.910;2023-05-31T02:41:52;10.80;99.90
33095;DHT22;19459;53.044;8.910;2023-05-31T02:44:17;10.80;99.90
33095;DHT22;19459;53.044;8.910;2023-05-31T02:46:47;10.80;99.90
33095;DHT22;19459;53.044;8.910;2023-05-31T02:49:12;10.80;99.90
33095;DHT22;19459;53.044;8.910;2023-05-31T02:51:38;10.80;99.90
33095;DHT22;19459;53.044;8.910;2023-05-31T02:54:04;10.80;99.90
33095;DHT22;19459;53.044;8.910;2023-05-31T02:56:30;10.80;99.90
33095;DHT22;19459;53.044;8.910;2023-05-31T02:58:56;10.80;99.90
33095;DHT22;19459;53.044;8.910;2023-05-31T03:01:21;10.80;99.90
33095;DHT22;19459;53.044;8.910;2023-05-31T03:03:47;10.80;99.90
33095;DHT22;19459;53.044;8.910;2023-05-31T03:06:13;10.80;99.90
33095;DHT22;19459;53.044;8.910;2023-05-31T03:08:42;10.80;99.90
33095;DHT22;19459;53.044;8.910;2023-05-31T03:11:08;10.80;99.90
33095;DHT22;19459;53.044;8.910;2023-05-31T03:13:33;10.80;99.90
33095;DHT22;19459;53.044;8.910;2023-05-31T03:16:00;10.80;99.90
33095;DHT22;19459;53.044;8.910;2023-05-31T03:18:26;10.80;99.90
33095;DHT22;19459;53.044;8.910;2023-05-31T03:20:52;10.80;99.90
33095;DHT22;19459;53.044;8.910;2023-05-31T03:23:17;10.70;99.90
33095;DHT22;19459;53.044;8.910;2023-05-31T03:25:43;10.70;99.90
33095;DHT22;19459;53.044;8.910;2023-05-31T03:28:09;10.70;99.90
33095;DHT22;19459;53.044;8.910;2023-05-31T03:30:35;10.70;99.90
33095;DHT22;19459;53.044;8.910;2023-05-31T03:33:01;10.70;99.90
33095;DHT22;19459;53.044;8.910;2023-05-31T03:35:28;10.70;99.90
33095;DHT22;19459;53.044;8.910;2023-05-31T03:37:54;10.70;99.90
33095;DHT22;19459;53.044;8.910;2023-05-31T03:40:19;10.70;99.90
33095;DHT22;19459;53.044;8.910;2023-05-31T03:42:45;10.70;99.90
33095;DHT22;19459;53.044;8.910;2023-05-31T03:45:11;10.70;99.90
33095;DHT22;19459;53.044;8.910;2023-05-31T03:47:37;10.70;99.90
33095;DHT22;19459;53.044;8.910;2023-05-31T03:50:13;10.70;99.90
33095;DHT22;19459;53.044;8.910;2023-05-31T03:52:44;10.70;99.90
33095;DHT22;19459;53.044;8.910;2023-05-31T03:55:10;10.70;99.90
33095;DHT22;19459;53.044;8.910;2023-05-31T03:57:36;10.70;99.90
33095;DHT22;19459;53.044;8.910;2023-05-31T04:00:02;10.70;99.90
33095;DHT22;19459;53.044;8.910;2023-05-31T04:02:28;10.70;99.90
33095;DHT22;19459;53.044;8.910;2023-05-31T04:04:54;10.80;99.90
33095;DHT22;19459;53.044;8.910;2023-05-31T04:07:20;10.70;99.90
33095;DHT22;19459;53.044;8.910;2023-05-31T04:09:45;10.70;99.90
33095;DHT22;19459;53.044;8.910;2023-05-31T04:12:11;10.70;99.90
33095;DHT22;19459;53.044;8.910;2023-05-31T04:14:37;10.70;99.90
33095;DHT22;19459;53.044;8.910;2023-05-31T04:17:02;10.70;99.90
33095;DHT22;19459;53.044;8.910;2023-05-31T04:19:28;10.70;99.90
33095;DHT22;19459;53.044;8.910;2023-05-31T04:21:54;10.70;99.90
33095;DHT22;19459;53.044;8.910;2023-05-31T04:24:20;10.70;99.90
33095;DHT22;19459;53.044;8.910;2023-05-31T04:26:46;10.70;99.90
33095;DHT22;19459;53.044;8.910;2023-05-31T04:29:12;10.70;99.90
33095;DHT22;19459;53.044;8.910;2023-05-31T04:31:37;10.80;99.90
33095;DHT22;19459;53.044;8.910;2023-05-31T04:34:03;10.80;99.90
33095;DHT22;19459;53.044;8.910;2023-05-31T04:36:29;10.70;99.90
33095;DHT22;19459;53.044;8.910;2023-05-31T04:38:58;10.70;99.90
33095;DHT22;19459;53.044;8.910;2023-05-31T04:41:25;10.70;99.90
33095;DHT22;19459;53.044;8.910;2023-05-31T04:43:53;10.70;99.90
33095;DHT22;19459;53.044;8.910;2023-05-31T04:46:19;10.70;99.90
33095;DHT22;19459;53.044;8.910;2023-05-31T04:48:47;10.80;99.90
33095;DHT22;19459;53.044;8.910;2023-05-31T04:51:18;10.80;99.90
33095;DHT22;19459;53.044;8.910;2023-05-31T04:53:45;10.80;99.90
33095;DHT22;19459;53.044;8.910;2023-05-31T04:56:14;10.80;99.90
33095;DHT22;19459;53.044;8.910;2023-05-31T04:58:40;10.90;99.90
33095;DHT22;19459;53.044;8.910;2023-05-31T05:01:06;10.90;99.90
33095;DHT22;19459;53.044;8.910;2023-05-31T05:03:33;11.00;99.90
33095;DHT22;19459;53.044;8.910;2023-05-31T05:06:02;11.00;99.90
33095;DHT22;19459;53.044;8.910;2023-05-31T05:08:38;11.00;99.90
33095;DHT22;19459;53.044;8.910;2023-05-31T05:11:03;11.10;99.90
33095;DHT22;19459;53.044;8.910;2023-05-31T05:13:30;11.10;99.90
33095;DHT22;19459;53.044;8.910;2023-05-31T05:15:56;11.20;99.90
33095;DHT22;19459;53.044;8.910;2023-05-31T05:18:22;11.20;99.90
33095;DHT22;19459;53.044;8.910;2023-05-31T05:20:47;11.30;99.90
33095;DHT22;19459;53.044;8.910;2023-05-31T05:23:13;11.40;99.90
33095;DHT22;19459;53.044;8.910;2023-05-31T05:25:39;11.40;99.90
33095;DHT22;19459;53.044;8.910;2023-05-31T05:28:05;11.50;99.90
33095;DHT22;19459;53.044;8.910;2023-05-31T05:30:30;11.60;99.90
33095;DHT22;19459;53.044;8.910;2023-05-31T05:32:57;11.60;99.90
33095;DHT22;19459;53.044;8.910;2023-05-31T05:35:23;11.70;99.90
33095;DHT22;19459;53.044;8.910;2023-05-31T05:37:49;11.80;99.90
33095;DHT22;19459;53.044;8.910;2023-05-31T05:40:15;11.90;99.90
33095;DHT22;19459;53.044;8.910;2023-05-31T05:42:42;11.90;99.90
33095;DHT22;19459;53.044;8.910;2023-05-31T05:45:08;12.00;99.90
33095;DHT22;19459;53.044;8.910;2023-05-31T05:47:34;12.00;99.90
33095;DHT22;19459;53.044;8.910;2023-05-31T05:50:01;12.10;99.90
33095;DHT22;19459;53.044;8.910;2023-05-31T05:52:27;12.20;99.90
33095;DHT22;19459;53.044;8.910;2023-05-31T05:54:53;12.20;99.90
33095;DHT22;19459;53.044;8.910;2023-05-31T05:57:19;12.30;99.90
33095;DHT22;19459;53.044;8.910;2023-05-31T05:59:45;12.40;99.90
33095;DHT22;19459;53.044;8.910;2023-05-31T06:02:11;12.50;99.90
33095;DHT22;19459;53.044;8.910;2023-05-31T06:04:37;12.60;99.90
33095;DHT22;19459;53.044;8.910;2023-05-31T06:07:04;12.70;99.90
33095;DHT22;19459;53.044;8.910;2023-05-31T06:09:30;12.80;99.90
33095;DHT22;19459;53.044;8.910;2023-05-31T06:11:56;13.00;99.90
33095;DHT22;19459;53.044;8.910;2023-05-31T06:14:22;13.10;99.90
33095;DHT22;19459;53.044;8.910;2023-05-31T06:16:47;13.20;99.90
33095;DHT22;19459;53.044;8.910;2023-05-31T06:19:13;13.30;99.90
33095;DHT22;19459;53.044;8.910;2023-05-31T06:21:39;13.40;99.90
33095;DHT22;19459;53.044;8.910;2023-05-31T06:24:05;13.50;99.90
33095;DHT22;19459;53.044;8.910;2023-05-31T06:26:31;13.60;99.90
33095;DHT22;19459;53.044;8.910;2023-05-31T06:28:58;13.80;99.90
33095;DHT22;19459;53.044;8.910;2023-05-31T06:31:27;13.90;99.90
33095;DHT22;19459;53.044;8.910;2023-05-31T06:33:53;14.00;99.90
33095;DHT22;19459;53.044;8.910;2023-05-31T06:36:19;14.10;99.90
33095;DHT22;19459;53.044;8.910;2023-05-31T06:38:44;14.30;99.90
33095;DHT22;19459;53.044;8.910;2023-05-31T06:41:12;14.50;99.90
33095;DHT22;19459;53.044;8.910;2023-05-31T06:43:37;14.60;99.90
33095;DHT22;19459;53.044;8.910;2023-05-31T06:46:03;14.80;99.90
33095;DHT22;19459;53.044;8.910;2023-05-31T06:48:32;14.90;99.90
33095;DHT22;19459;53.044;8.910;2023-05-31T06:50:58;15.10;99.90
33095;DHT22;19459;53.044;8.910;2023-05-31T06:53:24;15.20;99.90
33095;DHT22;19459;53.044;8.910;2023-05-31T06:55:51;15.30;99.90
33095;DHT22;19459;53.044;8.910;2023-05-31T06:58:17;15.60;99.90
33095;DHT22;19459;53.044;8.910;2023-05-31T07:00:43;15.80;99.90
33095;DHT22;19459;53.044;8.910;2023-05-31T07:03:09;16.00;99.90
33095;DHT22;19459;53.044;8.910;2023-05-31T07:05:35;16.10;99.90
33095;DHT22;19459;53.044;8.910;2023-05-31T07:08:01;16.30;99.90
33095;DHT22;19459;53.044;8.910;2023-05-31T07:10:26;16.30;99.90
33095;DHT22;19459;53.044;8.910;2023-05-31T07:12:53;16.50;99.90
33095;DHT22;19459;53.044;8.910;2023-05-31T07:15:19;16.70;99.90
33095;DHT22;19459;53.044;8.910;2023-05-31T07:17:45;16.90;99.90
33095;DHT22;19459;53.044;8.910;2023-05-31T07:20:11;17.00;99.90
33095;DHT22;19459;53.044;8.910;2023-05-31T07:22:37;17.20;99.90
33095;DHT22;19459;53.044;8.910;2023-05-31T07:25:04;17.50;99.90
33095;DHT22;19459;53.044;8.910;2023-05-31T07:27:31;17.70;99.90
33095;DHT22;19459;53.044;8.910;2023-05-31T07:29:56;17.90;99.90
33095;DHT22;19459;53.044;8.910;2023-05-31T07:32:22;18.00;99.90
33095;DHT22;19459;53.044;8.910;2023-05-31T07:34:48;18.10;99.90
33095;DHT22;19459;53.044;8.910;2023-05-31T07:37:14;18.20;99.90
33095;DHT22;19459;53.044;8.910;2023-05-31T07:39:40;18.30;99.90
33095;DHT22;19459;53.044;8.910;2023-05-31T07:42:06;18.50;99.90
33095;DHT22;19459;53.044;8.910;2023-05-31T07:44:32;18.60;99.90
33095;DHT22;19459;53.044;8.910;2023-05-31T07:46:59;18.70;99.90
33095;DHT22;19459;53.044;8.910;2023-05-31T07:49:25;19.00;99.90
33095;DHT22;19459;53.044;8.910;2023-05-31T07:51:51;19.20;99.90
33095;DHT22;19459;53.044;8.910;2023-05-31T07:54:17;19.40;99.90
33095;DHT22;19459;53.044;8.910;2023-05-31T07:56:43;19.40;99.90
33095;DHT22;19459;53.044;8.910;2023-05-31T07:59:09;19.60;99.90
33095;DHT22;19459;53.044;8.910;2023-05-31T08:01:35;19.80;99.90
33095;DHT22;19459;53.044;8.910;2023-05-31T08:04:10;19.90;99.90
33095;DHT22;19459;53.044;8.910;2023-05-31T08:06:36;20.10;99.90
33095;DHT22;19459;53.044;8.910;2023-05-31T08:09:04;20.10;99.90
33095;DHT22;19459;53.044;8.910;2023-05-31T08:11:32;20.20;99.90
33095;DHT22;19459;53.044;8.910;2023-05-31T08:13:57;20.40;99.90
33095;DHT22;19459;53.044;8.910;2023-05-31T08:16:23;20.50;99.90
33095;DHT22;19459;53.044;8.910;2023-05-31T08:18:49;20.10;99.90
33095;DHT22;19459;53.044;8.910;2023-05-31T08:21:15;20.20;99.90
33095;DHT22;19459;53.044;8.910;2023-05-31T08:23:41;20.10;99.90
33095;DHT22;19459;53.044;8.910;2023-05-31T08:26:08;20.40;99.90
33095;DHT22;19459;53.044;8.910;2023-05-31T08:28:34;20.70;99.90
33095;DHT22;19459;53.044;8.910;2023-05-31T08:31:00;20.80;99.40
33095;DHT22;19459;53.044;8.910;2023-05-31T08:33:31;20.90;98.70
33095;DHT22;19459;53.044;8.910;2023-05-31T08:36:00;21.00;98.70
33095;DHT22;19459;53.044;8.910;2023-05-31T08:38:29;21.10;98.50
33095;DHT22;19459;53.044;8.910;2023-05-31T08:41:01;21.30;99.30
33095;DHT22;19459;53.044;8.910;2023-05-31T08:43:28;21.30;97.60
33095;DHT22;19459;53.044;8.910;2023-05-31T08:45:55;21.50;98.90
33095;DHT22;19459;53.044;8.910;2023-05-31T08:48:23;21.40;96.70
33095;DHT22;19459;53.044;8.910;2023-05-31T08:50:52;21.50;97.20
33095;DHT22;19459;53.044;8.910;2023-05-31T08:53:20;21.50;96.90
33095;DHT22;19459;53.044;8.910;2023-05-31T08:55:49;21.70;96.40
33095;DHT22;19459;53.044;8.910;2023-05-31T08:58:17;21.80;96.50
33095;DHT22;19459;53.044;8.910;2023-05-31T09:00:44;22.10;96.50
33095;DHT22;19459;53.044;8.910;2023-05-31T09:03:11;22.10;95.90
33095;DHT22;19459;53.044;8.910;2023-05-31T09:05:36;22.40;97.80
33095;DHT22;19459;53.044;8.910;2023-05-31T09:08:02;22.50;96.20
33095;DHT22;19459;53.044;8.910;2023-05-31T09:10:29;22.10;95.10
33095;DHT22;19459;53.044;8.910;2023-05-31T09:12:55;22.30;96.50
33095;DHT22;19459;53.044;8.910;2023-05-31T09:15:23;22.50;95.90
33095;DHT22;19459;53.044;8.910;2023-05-31T09:17:49;22.90;96.30
33095;DHT22;19459;53.044;8.910;2023-05-31T09:20:15;23.00;94.90
33095;DHT22;19459;53.044;8.910;2023-05-31T09:22:47;23.00;94.10
33095;DHT22;19459;53.044;8.910;2023-05-31T09:25:16;23.10;93.90
33095;DHT22;19459;53.044;8.910;2023-05-31T09:27:41;23.30;94.90
33095;DHT22;19459;53.044;8.910;2023-05-31T09:30:10;23.40;94.50
33095;DHT22;19459;53.044;8.910;2023-05-31T09:32:37;23.40;93.00
33095;DHT22;19459;53.044;8.910;2023-05-31T09:35:11;23.30;92.90
33095;DHT22;19459;53.044;8.910;2023-05-31T09:37:46;23.10;93.60
33095;DHT22;19459;53.044;8.910;2023-05-31T09:40:24;23.20;94.60
33095;DHT22;19459;53.044;8.910;2023-05-31T09:42:54;23.50;92.10
33095;DHT22;19459;53.044;8.910;2023-05-31T09:45:21;23.90;93.50
33095;DHT22;19459;53.044;8.910;2023-05-31T09:47:47;24.40;93.40
33095;DHT22;19459;53.044;8.910;2023-05-31T09:50:19;24.80;93.40
33095;DHT22;19459;53.044;8.910;2023-05-31T09:52:48;24.90;92.90
33095;DHT22;19459;53.044;8.910;2023-05-31T09:55:16;24.90;91.80
33095;DHT22;19459;53.044;8.910;2023-05-31T09:57:43;25.20;92.70
33095;DHT22;19459;53.044;8.910;2023-05-31T10:00:14;25.50;92.20
33095;DHT22;19459;53.044;8.910;2023-05-31T10:02:45;25.60;92.30
33095;DHT22;19459;53.044;8.910;2023-05-31T10:05:15;25.80;92.00
33095;DHT22;19459;53.044;8.910;2023-05-31T10:07:43;26.20;92.30
33095;DHT22;19459;53.044;8.910;2023-05-31T10:10:13;26.10;90.20
33095;DHT22;19459;53.044;8.910;2023-05-31T10:13:00;26.20;91.90
33095;DHT22;19459;53.044;8.910;2023-05-31T10:15:30;26.00;90.60
33095;DHT22;19459;53.044;8.910;2023-05-31T10:17:58;26.10;90.60
33095;DHT22;19459;53.044;8.910;2023-05-31T10:20:27;26.00;90.50
33095;DHT22;19459;53.044;8.910;2023-05-31T10:22:57;26.10;91.80
33095;DHT22;19459;53.044;8.910;2023-05-31T10:25:31;26.40;87.80
33095;DHT22;19459;53.044;8.910;2023-05-31T10:28:09;26.40;87.20
33095;DHT22;19459;53.044;8.910;2023-05-31T10:30:40;26.40;87.90
33095;DHT22;19459;53.044;8.910;2023-05-31T10:33:07;26.40;89.10
33095;DHT22;19459;53.044;8.910;2023-05-31T10:35:35;26.60;90.10
33095;DHT22;19459;53.044;8.910;2023-05-31T10:38:02;26.50;89.10
33095;DHT22;19459;53.044;8.910;2023-05-31T10:46:08;26.60;86.20
33095;DHT22;19459;53.044;8.910;2023-05-31T10:48:46;26.70;90.10
33095;DHT22;19459;53.044;8.910;2023-05-31T10:51:39;27.10;90.10
33095;DHT22;19459;53.044;8.910;2023-05-31T10:54:05;27.00;84.00
33095;DHT22;19459;53.044;8.910;2023-05-31T10:56:31;27.00;89.50
33095;DHT22;19459;53.044;8.910;2023-05-31T10:58:57;27.00;84.70
33095;DHT22;19459;53.044;8.910;2023-05-31T11:01:28;26.90;80.40
33095;DHT22;19459;53.044;8.910;2023-05-31T11:03:55;26.80;82.70
33095;DHT22;19459;53.044;8.910;2023-05-31T11:06:31;26.70;85.90
33095;DHT22;19459;53.044;8.910;2023-05-31T11:09:13;26.50;86.40
33095;DHT22;19459;53.044;8.910;2023-05-31T11:11:49;27.00;84.60
33095;DHT22;19459;53.044;8.910;2023-05-31T11:19:29;27.80;83.60
33095;DHT22;19459;53.044;8.910;2023-05-31T11:22:10;27.90;81.60
33095;DHT22;19459;53.044;8.910;2023-05-31T11:24:39;27.80;81.20
33095;DHT22;19459;53.044;8.910;2023-05-31T11:27:17;27.90;83.00
33095;DHT22;19459;53.044;8.910;2023-05-31T11:32:10;28.50;84.70
33095;DHT22;19459;53.044;8.910;2023-05-31T11:34:49;28.90;81.30
33095;DHT22;19459;53.044;8.910;2023-05-31T11:37:33;28.90;82.60
33095;DHT22;19459;53.044;8.910;2023-05-31T11:40:04;28.70;84.80
33095;DHT22;19459;53.044;8.910;2023-05-31T11:42:42;28.80;84.80
33095;DHT22;19459;53.044;8.910;2023-05-31T11:45:14;29.30;83.80
33095;DHT22;19459;53.044;8.910;2023-05-31T11:50:32;28.70;83.00
33095;DHT22;19459;53.044;8.910;2023-05-31T11:53:02;28.40;82.60
33095;DHT22;19459;53.044;8.910;2023-05-31T14:45:00;27.10;83.90
33095;DHT22;19459;53.044;8.910;2023-05-31T14:47:37;27.00;81.80
33095;DHT22;19459;53.044;8.910;2023-05-31T14:50:03;26.70;81.30
33095;DHT22;19459;53.044;8.910;2023-05-31T14:52:30;26.80;85.00
33095;DHT22;19459;53.044;8.910;2023-05-31T14:54:56;26.90;85.20
33095;DHT22;19459;53.044;8.910;2023-05-31T14:57:21;27.10;84.30
33095;DHT22;19459;53.044;8.910;2023-05-31T14:59:47;27.30;84.50
33095;DHT22;19459;53.044;8.910;2023-05-31T15:02:13;26.90;82.40
33095;DHT22;19459;53.044;8.910;2023-05-31T15:04:39;26.70;84.20
33095;DHT22;19459;53.044;8.910;2023-05-31T15:07:06;26.90;83.50
33095;DHT22;19459;53.044;8.910;2023-05-31T15:09:31;26.70;81.20
33095;DHT22;19459;53.044;8.910;2023-05-31T15:11:57;26.30;81.40
33095;DHT22;19459;53.044;8.910;2023-05-31T15:14:23;26.20;83.40
33095;DHT22;19459;53.044;8.910;2023-05-31T15:16:49;26.20;84.60
33095;DHT22;19459;53.044;8.910;2023-05-31T15:19:14;26.30;82.80
33095;DHT22;19459;53.044;8.910;2023-05-31T15:21:43;26.10;82.70
33095;DHT22;19459;53.044;8.910;2023-05-31T15:24:09;25.90;84.10
33095;DHT22;19459;53.044;8.910;2023-05-31T15:26:34;25.60;83.30
33095;DHT22;19459;53.044;8.910;2023-05-31T15:29:00;25.50;85.00
33095;DHT22;19459;53.044;8.910;2023-05-31T15:31:26;25.50;84.20
33095;DHT22;19459;53.044;8.910;2023-05-31T15:33:52;25.10;83.40
33095;DHT22;19459;53.044;8.910;2023-05-31T15:36:18;24.80;83.70
33095;DHT22;19459;53.044;8.910;2023-05-31T15:38:44;24.50;84.20
33095;DHT22;19459;53.044;8.910;2023-05-31T15:41:10;24.80;85.20
33095;DHT22;19459;53.044;8.910;2023-05-31T15:43:36;24.90;86.60
33095;DHT22;19459;53.044;8.910;2023-05-31T15:46:01;25.30;85.00
33095;DHT22;19459;53.044;8.910;2023-05-31T15:48:27;25.60;83.20
33095;DHT22;19459;53.044;8.910;2023-05-31T15:50:53;25.60;84.30
33095;DHT22;19459;53.044;8.910;2023-05-31T15:53:20;25.30;84.20
33095;DHT22;19459;53.044;8.910;2023-05-31T15:55:45;25.30;84.70
33095;DHT22;19459;53.044;8.910;2023-05-31T15:58:12;25.10;83.80
33095;DHT22;19459;53.044;8.910;2023-05-31T16:00:38;24.80;83.50
33095;DHT22;19459;53.044;8.910;2023-05-31T16:03:04;24.20;84.80
33095;DHT22;19459;53.044;8.910;2023-05-31T16:05:30;24.20;87.20
33095;DHT22;19459;53.044;8.910;2023-05-31T16:08:00;24.40;86.60
33095;DHT22;19459;53.044;8.910;2023-05-31T16:10:27;24.00;86.40
33095;DHT22;19459;53.044;8.910;2023-05-31T16:12:53;23.90;88.50
33095;DHT22;19459;53.044;8.910;2023-05-31T16:15:19;24.10;88.10
33095;DHT22;19459;53.044;8.910;2023-05-31T16:17:45;24.00;88.30
33095;DHT22;19459;53.044;8.910;2023-05-31T16:20:11;24.20;88.90
33095;DHT22;19459;53.044;8.910;2023-05-31T16:22:37;23.80;87.10
33095;DHT22;19459;53.044;8.910;2023-05-31T16:25:03;23.50;88.50
33095;DHT22;19459;53.044;8.910;2023-05-31T16:27:31;23.60;90.50
33095;DHT22;19459;53.044;8.910;2023-05-31T16:29:57;23.60;89.50
33095;DHT22;19459;53.044;8.910;2023-05-31T16:32:23;23.40;89.80
33095;DHT22;19459;53.044;8.910;2023-05-31T16:34:49;23.60;89.60
33095;DHT22;19459;53.044;8.910;2023-05-31T16:37:14;23.20;88.50
33095;DHT22;19459;53.044;8.910;2023-05-31T16:39:43;22.60;90.00
33095;DHT22;19459;53.044;8.910;2023-05-31T16:42:09;22.30;90.60
33095;DHT22;19459;53.044;8.910;2023-05-31T16:44:35;22.20;91.10
33095;DHT22;19459;53.044;8.910;2023-05-31T16:47:01;22.30;91.00
33095;DHT22;19459;53.044;8.910;2023-05-31T16:49:27;22.40;91.30
33095;DHT22;19459;53.044;8.910;2023-05-31T16:51:53;22.30;91.50
33095;DHT22;19459;53.044;8.910;2023-05-31T16:54:19;22.50;91.80
33095;DHT22;19459;53.044;8.910;2023-05-31T16:56:44;22.40;91.30
33095;DHT22;19459;53.044;8.910;2023-05-31T16:59:10;22.50;91.40
33095;DHT22;19459;53.044;8.910;2023-05-31T17:01:36;22.40;91.30
33095;DHT22;19459;53.044;8.910;2023-05-31T17:04:02;22.20;91.90
33095;DHT22;19459;53.044;8.910;2023-05-31T17:06:28;21.80;92.60
33095;DHT22;19459;53.044;8.910;2023-05-31T17:08:53;21.90;92.60
33095;DHT22;19459;53.044;8.910;2023-05-31T17:11:19;21.60;92.20
33095;DHT22;19459;53.044;8.910;2023-05-31T17:13:45;21.30;92.10
33095;DHT22;19459;53.044;8.910;2023-05-31T17:16:11;21.00;93.00
33095;DHT22;19459;53.044;8.910;2023-05-31T17:18:39;21.10;93.70
33095;DHT22;19459;53.044;8.910;2023-05-31T17:21:05;20.90;93.10
33095;DHT22;19459;53.044;8.910;2023-05-31T17:23:31;20.70;92.90
33095;DHT22;19459;53.044;8.910;2023-05-31T17:25:57;20.60;93.90
33095;DHT22;19459;53.044;8.910;2023-05-31T17:28:23;20.70;94.80
33095;DHT22;19459;53.044;8.910;2023-05-31T17:30:49;20.80;94.10
33095;DHT22;19459;53.044;8.910;2023-05-31T17:33:15;20.70;94.70
33095;DHT22;19459;53.044;8.910;2023-05-31T17:35:43;20.80;94.60
33095;DHT22;19459;53.044;8.910;2023-05-31T17:38:09;20.50;94.70
33095;DHT22;19459;53.044;8.910;2023-05-31T17:40:35;20.10;95.20
33095;DHT22;19459;53.044;8.910;2023-05-31T17:43:03;19.80;95.50
33095;DHT22;19459;53.044;8.910;2023-05-31T17:45:29;19.60;95.90
33095;DHT22;19459;53.044;8.910;2023-05-31T17:47:55;19.40;96.20
33095;DHT22;19459;53.044;8.910;2023-05-31T17:50:21;19.20;97.00
33095;DHT22;19459;53.044;8.910;2023-05-31T17:52:47;19.00;97.20
33095;DHT22;19459;53.044;8.910;2023-05-31T17:55:13;19.00;97.30
33095;DHT22;19459;53.044;8.910;2023-05-31T17:57:38;19.00;97.30
33095;DHT22;19459;53.044;8.910;2023-05-31T18:00:06;18.90;97.70
33095;DHT22;19459;53.044;8.910;2023-05-31T18:02:33;18.90;97.50
33095;DHT22;19459;53.044;8.910;2023-05-31T18:04:59;18.70;98.10
33095;DHT22;19459;53.044;8.910;2023-05-31T18:07:25;18.50;98.60
33095;DHT22;19459;53.044;8.910;2023-05-31T18:09:53;18.30;99.10
33095;DHT22;19459;53.044;8.910;2023-05-31T18:12:18;18.20;98.90
33095;DHT22;19459;53.044;8.910;2023-05-31T18:14:44;18.00;99.70
33095;DHT22;19459;53.044;8.910;2023-05-31T18:17:10;18.00;99.70
33095;DHT22;19459;53.044;8.910;2023-05-31T18:19:36;17.60;99.40
33095;DHT22;19459;53.044;8.910;2023-05-31T18:22:01;17.20;99.90
33095;DHT22;19459;53.044;8.910;2023-05-31T18:24:27;16.90;99.90
33095;DHT22;19459;53.044;8.910;2023-05-31T18:26:53;16.60;99.90
33095;DHT22;19459;53.044;8.910;2023-05-31T18:29:21;16.40;99.90
33095;DHT22;19459;53.044;8.910;2023-05-31T18:31:50;16.30;99.90
33095;DHT22;19459;53.044;8.910;2023-05-31T18:34:16;16.10;99.90
33095;DHT22;19459;53.044;8.910;2023-05-31T18:36:42;16.10;99.90
33095;DHT22;19459;53.044;8.910;2023-05-31T18:39:08;16.20;99.90
33095;DHT22;19459;53.044;8.910;2023-05-31T18:41:41;16.00;99.90
33095;DHT22;19459;53.044;8.910;2023-05-31T18:44:08;15.90;99.90
33095;DHT22;19459;53.044;8.910;2023-05-31T18:46:34;15.70;99.90